This is the latest recevied weather packets stored in our database for station/object AA7VG. If no packets are shown the sender has not sent any weather packets the latest 1 day(s).
| Time | Temp. | Humidity | Pressure | Rain* | Wind** | Luminosity | Snow |
|---|---|---|---|---|---|---|---|
| 1777987935 | 0.56° C | 66% | 1015.3 hPa | 0 mm | 0.45 m/s, 140° | - | - |
| 1777987630 | 0.56° C | 68% | 1015.8 hPa | 0 mm | 0 m/s | - | - |
| 1777987328 | 0.56° C | 70% | 1015.4 hPa | 0 mm | 0 m/s | - | - |
| 1777987025 | 0° C | 69% | 1015.5 hPa | 0 mm | 0 m/s | - | - |
| 1777986723 | 0° C | 69% | 1015.3 hPa | 0 mm | 0 m/s | - | - |
| 1777986420 | 0° C | 69% | 1015.4 hPa | 0 mm | 0.45 m/s, 137° | - | - |
| 1777986119 | 1.11° C | 66% | 1015.2 hPa | 0 mm | 0.45 m/s, 140° | - | - |
| 1777985815 | 1.11° C | 64% | 1015.2 hPa | 0 mm | 0.89 m/s, 106° | - | - |
| 1777985512 | 1.11° C | 62% | 1014.7 hPa | 0 mm | 0 m/s | - | - |
| 1777985209 | 0.56° C | 63% | 1015.2 hPa | 0 mm | 0 m/s | - | - |
| 1777984905 | 0.56° C | 64% | 1015 hPa | 0 mm | 0 m/s | - | - |
| 1777984601 | 0.56° C | 65% | 1015 hPa | 0 mm | 0 m/s | - | - |
| 1777984298 | 0° C | 69% | 1015 hPa | 0 mm | 0.45 m/s, 305° | - | - |
| 1777983994 | -0.56° C | 69% | 1015 hPa | 0 mm | 0 m/s | - | - |
| 1777983692 | -0.56° C | 70% | 1015 hPa | 0 mm | 0 m/s | - | - |
| 1777983388 | -0.56° C | 71% | 1014.7 hPa | 0 mm | 0 m/s | - | - |
| 1777983085 | -0.56° C | 71% | 1014.7 hPa | 0 mm | 0 m/s | - | - |
| 1777982781 | -0.56° C | 71% | 1014.6 hPa | 0 mm | 0 m/s | - | - |
| 1777982477 | 0° C | 69% | 1015.1 hPa | 0 mm | 0 m/s | - | - |
| 1777982172 | 0.56° C | 66% | 1014.7 hPa | 0 mm | 0 m/s | - | - |
| 1777981869 | 1.11° C | 65% | 1014.8 hPa | 0 mm | 0.45 m/s, 319° | - | - |
| 1777981566 | 1.11° C | 60% | 1014.6 hPa | 0 mm | 0 m/s | - | - |
| 1777981263 | 1.11° C | 63% | 1015 hPa | 0 mm | 0 m/s | - | - |
| 1777980959 | 0.56° C | 63% | 1014.7 hPa | 0 mm | 0 m/s | - | - |
| 1777980656 | 0.56° C | 68% | 1014.7 hPa | 0 mm | 0 m/s | - | - |
* Rain latest hour (hover to see other rain measurements)
** Current wind speed in m/s (hover to see current wind gust speed)